Airfield :
LOGIN :

Register | Disclaimer

   EN    FR    IT 

 










Legend :    VFR   Marginal VFR   IFR   Intensive IFR   Very Intensive IFR
Visi :
Ceiling :
>= 8 km
>= 3000ft
5 to 8 km
1000 to 3000 ft
1500m to 5 km
500 to 1000 ft
800 to 1500m
200 to 500 ft
< 800m
< 200 ft
Symbols :   Thunderstorms  Fog  Heavy snow  Heavy precipitations  Wind > 20 kt
SIGMETs :     Misc.  Thunderstorms  Icing  Turbulence  Mountain Waves  Volcanic Ashes







- Airport Elevation : 616 ft
- IATA code : PUF
- Download approach charts


LFBP - Pau

CURRENT METAR :
  • 182300Z AUTO 08002KT 5000 R13/1200U BR FEW030 03/02 Q1024 TEMPO 0500 FG VV///

EXPIRED METARs :
  • 182230Z AUTO 06002KT 5000 BR SCT029 03/02 Q1025 TEMPO 0500 FG VV///
  • 182200Z AUTO 06002KT 5000 R13/1400N BR FEW001 03/03 Q1024 TEMPO BKN005
  • 182130Z AUTO 03002KT 4900 1700 R13/1200U BR FEW001 SCT029 04/03 Q1025 TEMPO BKN005
  • 182100Z AUTO 00000KT 3600 BR BKN030 03/03 Q1025 TEMPO BKN005
  • 182030Z AUTO 06002KT 5000 1600 BR SCT030 04/03 Q1025 TEMPO BKN005

TAF TAF LFBP
Valid from the 18 at 18:00 until the 19 at 18:00 UTC


181700Z 1818/1918 VRB03KT CAVOK
PROB40 1820/1907 3000 BR BKN005
PROB30 1900/1906 0500 FG VV///
BECMG 1909/1911 03005KT CAVOK
No reported NOTAMs for that airfield.



MET'MAP, your aeronautical weather chart ! - Copyright ORBIFLY December 2007 - Disclaimer

ORBIFLY MET'MAP TEAM :

Programming & Development : Alexandra Zaïnal
Concept & Development : Baudouin d'Aumeries
Co-Development & Prog : Marc-Olivier Méhu
Technical & hardware support : Manuel Goepfert

Contact : metmap@orbifly.com




SOURCES & CREDITS :

   NOAA